Roma, Italia

12:07 AM CEST del 07 Luglio 2015 (GMT +0200)
Rione Monti, Esquilino | | Change Station
CLOSE
Current Station
Stazione meteo personale
Location: Roma, LAZIO
Altitudine: 213 ft
Stazioni meteo nelle vicinanze
Avvisi attivi: Extreme high temperature

Alt. 213 ft 41.89 °N, 12.50 °E | Updated 7 minutes ago

Clear
Sereno
82.2 °F
Sembra 87 °F
N
0.0
Vento Variabile Vento da Est
Gusts 0.0 mph

Oggi
Massima -- | Minima -- °F
--% Possibilità di precip.
Ieri
Massima -- | Minima -- °F
Precip. -- in
5:41 AM 8:47 PM
Gobba a levante, 72% visible
Pressione 30.06 in
Visibilità -9999.0 miglia
Nuvole
Indice di calore 87 °F
Punto di rugiada 72 °F
Umidità 72%
Piovosità in
Spessore del manto nevoso Non disponibile.
Raggi UV Non disponibile.
Polline Non disponibile.
Qualità dell'aria Non disponibile.
Flu Activity Non disponibile.
METAR LIRA 062150Z 11002KT CAVOK 25/18 Q1018

More Conditions Fewer Conditions

Pressione 30.06 in
Visibilità -9999.0 miglia
Nuvole
Indice di calore 87 °F
Punto di rugiada 72 °F
Umidità 72%
Piovosità in
Spessore del manto nevoso Non disponibile.
Raggi UV Non disponibile.
Polline Non disponibile.
Qualità dell'aria Non disponibile.
Flu Activity Non disponibile.
METAR LIRA 062150Z 11002KT CAVOK 25/18 Q1018

More Conditions Fewer Conditions

10-Day Weather Forecast

×

Almanac

Astronomia

Jul. 07, 2015 Alba Tramonto
Ora attuale
Crepuscolo civile
Crepuscolo nautico
Crepuscolo astronomico
Luna
Estensione della luce visibile
Lunghezza del giorno
Tomorrow will be .
, % of the Moon is Illuminated

Gli estremi di oggi

Massime Regione Minime Regione

Community

WunderPhotos

Upload Photos

1,835,664 foto caricate!

WunderBlogs® & News

Nearby

Qualità dell'aria

  Qualità dell'aria Indice AQ Inquinante
Not available.

Profondità neve

Stazione Profondità Altitudine

Attività sismica

Città  Distanza Mag. Data & Ora
Minimo Magnitudo Mostrato è 2.5.

Temperature delle acque costiere

Località Temperatura

Stations

Stazioni meteo nelle vicinanze

Ubicazione della stazione Temp. Raffreddamento del vento Punto di rugiada Umidità Vento Precip. Alt. Aggiornato Tipo